Time;durP1;ratioP1;P1;durP2;ratioP2;P2;SDS_P1;SDS_P2;PMS_P1;PMS_P2;Temp;Humidity;BMP_temperature;BMP_pressure;BME280_temperature;BME280_humidity;BME280_pressure;Samples;Min_cycle;Max_cycle;Signal;HPM_P1;HPM_P2
2021/10/12 00:00:01;;;;;;;37.30;26.60;;;10.40;99.90;;;;;;5071127;28;20216;-64
2021/10/12 00:02:28;;;;;;;36.93;26.47;;;10.40;99.90;;;;;;5071439;28;20234;-64
2021/10/12 00:04:55;;;;;;;35.63;26.77;;;10.30;99.90;;;;;;5070976;28;20665;-63
2021/10/12 00:07:21;;;;;;;36.03;25.93;;;10.30;99.90;;;;;;5070941;28;20583;-64
2021/10/12 00:09:48;;;;;;;37.27;25.87;;;10.30;99.90;;;;;;5070779;28;20201;-64
2021/10/12 00:12:16;;;;;;;37.87;28.27;;;10.20;99.90;;;;;;5071206;28;20232;-63
2021/10/12 00:14:43;;;;;;;39.40;27.57;;;10.20;99.90;;;;;;5071036;28;20236;-64
2021/10/12 00:17:10;;;;;;;40.17;27.63;;;10.10;99.90;;;;;;5071008;28;20236;-64
2021/10/12 00:19:37;;;;;;;40.13;28.03;;;10.10;99.90;;;;;;5070745;28;20220;-64
2021/10/12 00:22:04;;;;;;;39.27;26.97;;;10.00;99.90;;;;;;5070710;28;20285;-63
2021/10/12 00:24:31;;;;;;;36.93;27.03;;;10.00;99.90;;;;;;5071364;28;20200;-64
2021/10/12 00:26:58;;;;;;;39.33;27.80;;;10.00;99.90;;;;;;5071074;28;20262;-63
2021/10/12 00:29:26;;;;;;;36.67;26.37;;;10.00;99.90;;;;;;5070809;28;20208;-63
2021/10/12 00:31:53;;;;;;;35.07;27.10;;;10.00;99.90;;;;;;5092373;22;20228;-65
2021/10/12 00:34:20;;;;;;;35.30;26.03;;;10.00;99.90;;;;;;5090984;28;20212;-64
2021/10/12 00:36:46;;;;;;;39.20;26.90;;;10.10;99.90;;;;;;5091043;28;20273;-65
2021/10/12 00:39:13;;;;;;;39.93;28.07;;;10.10;99.90;;;;;;5091015;28;20231;-65
2021/10/12 00:41:40;;;;;;;41.53;27.37;;;10.10;99.90;;;;;;5091164;28;20220;-65
2021/10/12 00:44:07;;;;;;;39.67;27.83;;;10.20;99.90;;;;;;5090843;28;20200;-65
2021/10/12 00:46:36;;;;;;;39.83;28.30;;;10.10;99.90;;;;;;5090934;28;20204;-64
2021/10/12 00:49:03;;;;;;;41.30;29.83;;;10.10;99.90;;;;;;5091149;28;20695;-65
2021/10/12 00:51:30;;;;;;;39.90;27.80;;;10.10;99.90;;;;;;5091146;28;20836;-64
2021/10/12 00:53:56;;;;;;;41.37;28.00;;;10.10;99.90;;;;;;5091451;28;20200;-65
2021/10/12 00:56:23;;;;;;;43.07;28.20;;;10.10;99.90;;;;;;5092727;28;20209;-65
2021/10/12 00:58:50;;;;;;;39.43;27.93;;;10.10;99.90;;;;;;5095425;28;20230;-65
2021/10/12 01:01:18;;;;;;;38.23;27.73;;;10.10;99.90;;;;;;5095515;28;20208;-65
2021/10/12 01:03:46;;;;;;;38.20;27.23;;;10.20;99.90;;;;;;5094991;28;20672;-64
2021/10/12 01:06:13;;;;;;;40.13;28.53;;;10.20;99.90;;;;;;5095653;28;20208;-64
2021/10/12 01:08:39;;;;;;;39.83;28.47;;;10.20;99.90;;;;;;5095139;28;20211;-64
2021/10/12 01:11:07;;;;;;;39.57;26.97;;;10.20;99.90;;;;;;5095366;28;20211;-64
2021/10/12 01:13:34;;;;;;;39.93;27.07;;;10.20;99.90;;;;;;5095402;28;20204;-64
2021/10/12 01:16:01;;;;;;;38.30;27.40;;;10.20;99.90;;;;;;5095090;28;20208;-64
2021/10/12 01:18:28;;;;;;;38.37;27.93;;;10.30;99.90;;;;;;5095585;28;20255;-64
2021/10/12 01:20:57;;;;;;;39.00;27.57;;;10.30;99.90;;;;;;5095093;28;20585;-65
2021/10/12 01:23:23;;;;;;;40.27;28.20;;;10.30;99.90;;;;;;5095027;28;20208;-65
2021/10/12 01:25:50;;;;;;;39.40;28.63;;;10.30;99.90;;;;;;5095264;28;20208;-65
2021/10/12 01:28:17;;;;;;;41.87;28.73;;;10.30;99.90;;;;;;5094619;28;20204;-65
2021/10/12 01:30:44;;;;;;;37.97;26.87;;;10.30;99.90;;;;;;5094536;28;20706;-64
2021/10/12 01:33:12;;;;;;;37.53;26.17;;;10.30;99.90;;;;;;5094864;28;20228;-65
2021/10/12 01:35:39;;;;;;;35.37;27.20;;;10.40;99.90;;;;;;5094806;28;20208;-65
2021/10/12 01:38:07;;;;;;;35.63;25.97;;;10.40;99.90;;;;;;5095057;28;20261;-65
2021/10/12 01:40:34;;;;;;;37.57;26.03;;;10.30;99.90;;;;;;5094935;28;20204;-65
2021/10/12 01:43:01;;;;;;;35.97;26.70;;;10.30;99.90;;;;;;5094656;28;20231;-64
2021/10/12 01:45:27;;;;;;;34.63;26.63;;;10.30;99.90;;;;;;5094960;28;20233;-65
2021/10/12 01:47:54;;;;;;;36.60;27.27;;;10.30;99.90;;;;;;5094492;28;20668;-65
2021/10/12 01:50:22;;;;;;;33.83;27.03;;;10.40;99.90;;;;;;5095266;28;20207;-65
2021/10/12 01:52:48;;;;;;;35.23;26.50;;;10.40;99.90;;;;;;5094754;28;20223;-64
2021/10/12 01:55:21;;;;;;;34.10;26.57;;;10.40;99.90;;;;;;5094911;28;20208;-65
2021/10/12 01:57:47;;;;;;;33.73;26.37;;;10.40;99.90;;;;;;5094838;28;20562;-65
2021/10/12 02:00:14;;;;;;;37.00;26.87;;;10.40;99.90;;;;;;5094675;28;20695;-65
2021/10/12 02:02:41;;;;;;;32.80;25.50;;;10.40;99.90;;;;;;5094952;28;20235;-65
2021/10/12 02:05:08;;;;;;;36.60;27.57;;;10.30;99.90;;;;;;5094770;28;20569;-65
2021/10/12 02:07:35;;;;;;;35.30;26.80;;;10.30;99.90;;;;;;5094480;28;20648;-65
2021/10/12 02:10:02;;;;;;;35.17;25.40;;;10.30;99.90;;;;;;5095104;28;20204;-65
2021/10/12 02:12:30;;;;;;;33.43;24.77;;;10.40;99.90;;;;;;5094664;28;20635;-65
2021/10/12 02:14:57;;;;;;;38.37;26.90;;;10.40;99.90;;;;;;5094340;28;20204;-65
2021/10/12 02:17:23;;;;;;;35.83;26.30;;;10.50;99.90;;;;;;5095009;28;20207;-65
2021/10/12 02:19:50;;;;;;;33.77;25.60;;;10.50;99.90;;;;;;5093941;28;20251;-65
2021/10/12 02:22:17;;;;;;;34.53;24.83;;;10.50;99.90;;;;;;5093784;28;20250;-65
2021/10/12 02:24:43;;;;;;;34.40;25.70;;;10.60;99.90;;;;;;5093589;28;20231;-65
2021/10/12 02:27:10;;;;;;;31.37;23.67;;;10.70;99.90;;;;;;5093684;28;20269;-65
2021/10/12 02:29:38;;;;;;;34.43;25.20;;;10.80;99.90;;;;;;5093425;28;20732;-64
2021/10/12 02:32:05;;;;;;;35.73;26.03;;;10.80;99.90;;;;;;5093473;28;20235;-65
2021/10/12 02:34:32;;;;;;;32.93;24.73;;;10.90;99.90;;;;;;5093019;28;20211;-64
2021/10/12 02:37:00;;;;;;;33.47;24.33;;;10.90;99.90;;;;;;5094411;28;20209;-65
2021/10/12 02:39:27;;;;;;;33.07;25.27;;;10.90;99.90;;;;;;5093881;28;20228;-65
2021/10/12 02:41:53;;;;;;;35.10;25.20;;;10.90;99.90;;;;;;5094769;28;20223;-65
2021/10/12 02:44:20;;;;;;;33.97;25.40;;;10.90;99.90;;;;;;5094133;28;20235;-64
2021/10/12 02:46:48;;;;;;;33.20;25.47;;;10.90;99.90;;;;;;5095005;28;20204;-65
2021/10/12 02:49:15;;;;;;;32.20;24.10;;;10.90;99.90;;;;;;5094218;28;20200;-65
2021/10/12 02:51:41;;;;;;;33.00;24.00;;;10.90;99.90;;;;;;5094939;28;20349;-65
2021/10/12 02:54:08;;;;;;;33.00;23.60;;;10.80;99.90;;;;;;5093591;28;20208;-65
2021/10/12 02:56:35;;;;;;;32.93;24.97;;;10.70;99.90;;;;;;5094323;28;20204;-65
2021/10/12 02:59:02;;;;;;;30.17;23.40;;;10.60;99.90;;;;;;5093531;28;20228;-65
2021/10/12 03:01:29;;;;;;;34.87;23.90;;;10.60;99.90;;;;;;5094034;28;20230;-65
2021/10/12 03:03:57;;;;;;;31.77;23.57;;;10.50;99.90;;;;;;5093572;28;20211;-65
2021/10/12 03:06:24;;;;;;;33.70;24.53;;;10.60;99.90;;;;;;5093400;28;20213;-65
2021/10/12 03:08:50;;;;;;;33.77;26.30;;;10.70;99.90;;;;;;5093015;28;20736;-65
2021/10/12 03:11:17;;;;;;;31.33;24.53;;;10.70;99.90;;;;;;5093351;28;20212;-65
2021/10/12 03:13:44;;;;;;;32.90;24.63;;;10.80;99.90;;;;;;5093123;28;20231;-65
2021/10/12 03:16:11;;;;;;;28.97;23.13;;;10.80;99.90;;;;;;5093157;28;20277;-65
2021/10/12 03:18:38;;;;;;;32.40;23.70;;;10.80;99.90;;;;;;5092832;28;20204;-67
2021/10/12 03:21:07;;;;;;;32.13;24.03;;;10.80;99.90;;;;;;5092600;28;20299;-65
2021/10/12 03:23:33;;;;;;;31.67;24.27;;;10.80;99.90;;;;;;5092583;28;20683;-65
2021/10/12 03:26:01;;;;;;;32.43;24.10;;;10.90;99.90;;;;;;5092793;28;20204;-65
2021/10/12 03:28:28;;;;;;;31.43;23.57;;;10.90;99.90;;;;;;5092617;28;20226;-65
2021/10/12 03:30:55;;;;;;;34.13;25.17;;;10.90;99.90;;;;;;5092358;28;20702;-65
2021/10/12 03:33:21;;;;;;;36.03;26.17;;;10.90;99.90;;;;;;5092407;28;20285;-65
2021/10/12 03:35:54;;;;;;;34.30;25.30;;;10.80;99.90;;;;;;5092451;28;20579;-65
2021/10/12 03:38:22;;;;;;;37.83;26.97;;;10.80;99.90;;;;;;5092709;28;20244;-65
2021/10/12 03:40:49;;;;;;;32.93;24.03;;;10.70;99.90;;;;;;5092567;28;20872;-65
2021/10/12 03:43:17;;;;;;;35.03;24.63;;;10.70;99.90;;;;;;5092353;28;20232;-64
2021/10/12 03:45:43;;;;;;;32.50;23.57;;;10.70;99.90;;;;;;5092296;28;20203;-65
2021/10/12 03:48:10;;;;;;;31.43;23.23;;;10.70;99.90;;;;;;5091849;28;20595;-65
2021/10/12 03:50:37;;;;;;;30.57;22.83;;;10.70;99.90;;;;;;5092417;28;20200;-65
2021/10/12 03:53:04;;;;;;;29.50;21.77;;;10.60;99.90;;;;;;5092223;28;20228;-65
2021/10/12 03:55:33;;;;;;;33.40;23.03;;;10.60;99.90;;;;;;5092110;28;20219;-65
2021/10/12 03:57:59;;;;;;;31.43;23.47;;;10.60;99.90;;;;;;5092017;28;20208;-65
2021/10/12 04:00:26;;;;;;;33.30;23.63;;;10.70;99.90;;;;;;5092723;28;20243;-65
2021/10/12 04:02:53;;;;;;;29.60;23.27;;;10.70;99.90;;;;;;5092022;28;20581;-65
2021/10/12 04:05:19;;;;;;;30.43;22.77;;;10.80;99.90;;;;;;5092273;28;20617;-65
2021/10/12 04:07:47;;;;;;;31.07;23.27;;;10.80;99.90;;;;;;5092175;28;20261;-65
2021/10/12 04:10:14;;;;;;;32.03;23.47;;;10.90;99.90;;;;;;5092127;28;20239;-65
2021/10/12 04:12:42;;;;;;;32.47;22.80;;;11.00;99.90;;;;;;5091814;28;20761;-65
2021/10/12 04:15:09;;;;;;;33.93;22.90;;;11.10;99.90;;;;;;5091894;28;20237;-65
2021/10/12 04:17:36;;;;;;;32.83;23.00;;;11.10;99.90;;;;;;5091773;28;20204;-65
2021/10/12 04:20:04;;;;;;;30.33;22.07;;;11.10;99.90;;;;;;5091558;28;20239;-65
2021/10/12 04:22:31;;;;;;;31.80;22.10;;;11.20;99.90;;;;;;5092091;28;20232;-65
2021/10/12 04:24:58;;;;;;;28.63;22.17;;;11.20;99.90;;;;;;5091859;28;20212;-64
2021/10/12 04:27:26;;;;;;;28.60;21.37;;;11.20;99.90;;;;;;5091623;28;20211;-65
2021/10/12 04:29:54;;;;;;;33.40;22.27;;;11.30;99.90;;;;;;5091434;28;20656;-65
2021/10/12 04:32:21;;;;;;;33.30;22.27;;;11.30;99.90;;;;;;5095765;28;20258;-65
2021/10/12 04:34:47;;;;;;;34.37;22.10;;;11.30;99.90;;;;;;5096056;28;20204;-64
2021/10/12 04:37:14;;;;;;;31.43;23.13;;;11.30;99.90;;;;;;5095973;28;20238;-65
2021/10/12 04:39:41;;;;;;;32.07;23.47;;;11.30;99.90;;;;;;5096283;28;20277;-64
2021/10/12 04:42:07;;;;;;;31.67;23.03;;;11.30;99.90;;;;;;5095866;28;20224;-64
2021/10/12 04:44:34;;;;;;;29.13;22.37;;;11.40;99.90;;;;;;5096319;28;20671;-64
2021/10/12 04:47:03;;;;;;;33.27;23.47;;;11.40;99.90;;;;;;5096015;28;20211;-65
2021/10/12 04:49:29;;;;;;;35.13;23.70;;;11.50;99.90;;;;;;5095557;28;20207;-64
2021/10/12 04:51:56;;;;;;;28.37;22.17;;;11.50;99.90;;;;;;5095620;28;20224;-64
2021/10/12 04:54:23;;;;;;;32.53;22.77;;;11.50;99.90;;;;;;5096055;28;20199;-64
2021/10/12 04:56:49;;;;;;;34.77;24.43;;;11.50;99.90;;;;;;5095664;28;20672;-64
2021/10/12 04:59:16;;;;;;;29.53;22.63;;;11.50;99.90;;;;;;5095111;28;20257;-65
2021/10/12 05:01:43;;;;;;;33.50;24.27;;;11.50;99.90;;;;;;5095296;28;20231;-64
2021/10/12 05:04:11;;;;;;;32.17;24.60;;;11.50;99.90;;;;;;5095672;28;20215;-65
2021/10/12 05:06:37;;;;;;;34.40;24.13;;;11.50;99.90;;;;;;5095255;28;20208;-64
2021/10/12 05:09:04;;;;;;;33.30;23.97;;;11.50;99.90;;;;;;5095212;28;20204;-63
2021/10/12 05:11:31;;;;;;;34.37;24.80;;;11.60;99.90;;;;;;5094919;28;20224;-64
2021/10/12 05:13:58;;;;;;;33.47;22.53;;;11.70;99.90;;;;;;5094926;28;20208;-64
2021/10/12 05:16:27;;;;;;;36.10;24.13;;;11.70;99.90;;;;;;5094696;28;20215;-64
2021/10/12 05:18:57;;;;;;;33.03;22.33;;;11.70;99.90;;;;;;5094864;28;20682;-64
2021/10/12 05:21:25;;;;;;;35.07;22.10;;;11.80;99.90;;;;;;5095538;28;20692;-64
2021/10/12 05:23:52;;;;;;;30.10;21.80;;;11.80;99.90;;;;;;5095234;28;20269;-64
2021/10/12 05:26:19;;;;;;;32.53;22.60;;;11.90;99.90;;;;;;5095013;28;20226;-64
2021/10/12 05:28:46;;;;;;;28.63;21.60;;;11.90;99.90;;;;;;5095131;28;20220;-64
2021/10/12 05:31:13;;;;;;;30.00;21.43;;;11.90;99.90;;;;;;5094953;28;20773;-64
2021/10/12 05:33:39;;;;;;;31.47;20.53;;;12.00;99.90;;;;;;5095213;28;20556;-64
2021/10/12 05:36:06;;;;;;;29.93;22.00;;;12.00;99.90;;;;;;5095007;28;20200;-64
2021/10/12 05:38:34;;;;;;;32.53;22.10;;;11.90;99.90;;;;;;5095198;28;20215;-64
2021/10/12 05:41:01;;;;;;;32.77;21.23;;;12.00;99.90;;;;;;5094989;28;20232;-64
2021/10/12 05:43:27;;;;;;;31.17;21.13;;;11.90;99.90;;;;;;5093970;28;20204;-64
2021/10/12 05:45:54;;;;;;;27.30;20.20;;;12.00;99.90;;;;;;5094605;28;20690;-64
2021/10/12 05:48:21;;;;;;;31.20;21.00;;;12.00;99.90;;;;;;5094901;28;20370;-64
2021/10/12 05:50:48;;;;;;;31.87;21.13;;;12.10;99.90;;;;;;5096260;28;20668;-64
2021/10/12 05:53:24;;;;;;;31.30;21.63;;;12.10;99.90;;;;;;5094862;28;20728;-65
2021/10/12 05:55:56;;;;;;;29.70;19.30;;;12.10;99.90;;;;;;5095457;28;20212;-65
2021/10/12 05:58:29;;;;;;;30.13;19.83;;;12.10;99.90;;;;;;5094483;28;20258;-65
2021/10/12 06:00:57;;;;;;;32.40;19.63;;;12.10;99.90;;;;;;5094336;28;20712;-65
2021/10/12 06:03:23;;;;;;;32.07;20.33;;;12.10;99.90;;;;;;5094354;28;20252;-65
2021/10/12 06:05:51;;;;;;;29.80;20.03;;;12.20;99.90;;;;;;5094789;28;20682;-66
2021/10/12 06:08:18;;;;;;;25.77;18.90;;;12.30;99.90;;;;;;5094543;28;20200;-65
2021/10/12 06:10:45;;;;;;;25.70;18.40;;;12.20;99.90;;;;;;5094285;28;20283;-65
2021/10/12 06:13:13;;;;;;;26.10;18.37;;;12.30;99.90;;;;;;5094320;28;20251;-65
2021/10/12 06:15:41;;;;;;;26.47;17.93;;;12.30;99.90;;;;;;5093993;28;20224;-65
2021/10/12 06:18:09;;;;;;;26.33;18.30;;;12.40;99.90;;;;;;5093824;28;20204;-65
2021/10/12 06:20:36;;;;;;;27.57;19.13;;;12.30;99.90;;;;;;5093919;28;20227;-65
2021/10/12 06:23:03;;;;;;;28.73;18.80;;;12.40;99.90;;;;;;5094003;28;20224;-65
2021/10/12 06:25:30;;;;;;;26.40;19.13;;;12.40;99.90;;;;;;5093755;28;20204;-64
2021/10/12 06:27:56;;;;;;;26.37;18.23;;;12.40;99.90;;;;;;5093835;28;20211;-65
2021/10/12 06:30:24;;;;;;;27.73;19.03;;;12.50;99.90;;;;;;5093954;28;20690;-65
2021/10/12 06:32:51;;;;;;;26.97;19.07;;;12.50;99.90;;;;;;5094306;28;20240;-67
2021/10/12 06:35:18;;;;;;;25.63;17.73;;;12.50;99.90;;;;;;5093863;28;20200;-65
2021/10/12 06:37:45;;;;;;;28.90;19.17;;;12.50;99.90;;;;;;5093845;28;20204;-66
2021/10/12 06:40:13;;;;;;;27.90;18.77;;;12.50;99.90;;;;;;5093808;28;20224;-66
2021/10/12 06:42:39;;;;;;;26.60;19.00;;;12.50;99.90;;;;;;5093033;28;20726;-67
2021/10/12 06:45:06;;;;;;;28.20;19.13;;;12.60;99.90;;;;;;5093457;28;20270;-65
2021/10/12 06:47:34;;;;;;;25.73;18.93;;;12.60;99.90;;;;;;5093371;28;20208;-67
2021/10/12 06:50:01;;;;;;;26.77;17.73;;;12.60;99.90;;;;;;5093418;28;20204;-66
2021/10/12 06:52:28;;;;;;;25.50;18.07;;;12.70;99.90;;;;;;5093371;28;20227;-66
2021/10/12 06:54:54;;;;;;;30.10;18.77;;;12.70;99.90;;;;;;5091643;28;20208;-67
2021/10/12 06:57:21;;;;;;;28.80;18.57;;;12.60;99.90;;;;;;5093484;28;20652;-66
2021/10/12 06:59:48;;;;;;;25.47;17.50;;;12.60;99.90;;;;;;5093061;28;20212;-66
2021/10/12 07:02:14;;;;;;;28.23;19.07;;;12.70;99.90;;;;;;5093589;28;20227;-66
2021/10/12 07:04:43;;;;;;;25.97;17.63;;;12.70;99.90;;;;;;5093105;28;20212;-67
2021/10/12 07:07:09;;;;;;;23.30;16.97;;;12.70;99.90;;;;;;5093625;28;20212;-67
2021/10/12 07:09:36;;;;;;;26.97;17.63;;;12.70;99.90;;;;;;5093377;28;20208;-66
2021/10/12 07:12:03;;;;;;;22.97;17.43;;;12.80;99.90;;;;;;5092632;28;20246;-65
2021/10/12 07:14:29;;;;;;;26.30;17.40;;;12.80;99.90;;;;;;5092676;28;20219;-66
2021/10/12 07:16:56;;;;;;;28.50;19.43;;;12.80;99.90;;;;;;5092697;28;20208;-66
2021/10/12 07:19:26;;;;;;;24.53;17.73;;;12.80;99.90;;;;;;5092711;28;20207;-66
2021/10/12 07:21:54;;;;;;;23.43;17.27;;;12.80;99.90;;;;;;5092667;28;20254;-64
2021/10/12 07:24:21;;;;;;;22.27;16.80;;;12.90;99.90;;;;;;5092738;28;20592;-65
2021/10/12 07:26:48;;;;;;;26.07;17.30;;;12.80;99.90;;;;;;5092941;28;20212;-66
2021/10/12 07:29:14;;;;;;;26.60;17.80;;;12.80;99.90;;;;;;5093830;28;20208;-67
2021/10/12 07:31:41;;;;;;;29.07;17.87;;;12.80;99.90;;;;;;5093619;28;20236;-65
2021/10/12 07:34:08;;;;;;;22.87;17.30;;;12.80;99.90;;;;;;5093102;28;20205;-67
2021/10/12 07:36:35;;;;;;;25.60;16.80;;;12.90;99.90;;;;;;5093490;28;20204;-66
2021/10/12 07:39:04;;;;;;;24.87;16.73;;;12.90;99.90;;;;;;5093102;28;20211;-68
2021/10/12 07:41:31;;;;;;;23.73;17.10;;;13.00;99.90;;;;;;5092495;28;20228;-67
2021/10/12 07:43:58;;;;;;;28.83;16.53;;;13.10;99.90;;;;;;5092684;28;20216;-65
2021/10/12 07:46:25;;;;;;;27.70;20.87;;;13.20;99.90;;;;;;5092864;28;20231;-66
2021/10/12 07:48:53;;;;;;;28.20;17.03;;;13.30;99.90;;;;;;5092569;28;20208;-65
2021/10/12 07:51:20;;;;;;;22.43;15.70;;;13.40;99.90;;;;;;5092791;28;20620;-66
2021/10/12 07:53:46;;;;;;;26.17;17.43;;;13.50;99.90;;;;;;5092567;28;20203;-66
2021/10/12 07:56:19;;;;;;;23.70;16.93;;;13.60;99.90;;;;;;5095450;28;20649;-65
2021/10/12 07:58:46;;;;;;;22.87;16.73;;;13.70;99.90;;;;;;5095020;28;20678;-62
2021/10/12 08:01:12;;;;;;;22.27;17.13;;;13.70;99.90;;;;;;5091584;28;20224;-59
2021/10/12 08:03:41;;;;;;;21.37;15.97;;;13.70;99.90;;;;;;5091760;28;20261;-59
2021/10/12 08:06:08;;;;;;;21.33;15.37;;;13.70;99.90;;;;;;5091458;28;20236;-60
2021/10/12 08:08:35;;;;;;;22.97;16.17;;;13.70;99.90;;;;;;5091499;28;20204;-59
2021/10/12 08:11:04;;;;;;;23.07;14.70;;;13.60;99.90;;;;;;5091121;28;20204;-60
2021/10/12 08:13:34;;;;;;;22.90;16.27;;;13.50;99.90;;;;;;5091350;28;20208;-60
2021/10/12 08:16:07;;;;;;;22.47;16.10;;;13.70;99.90;;;;;;5091479;28;20257;-60
2021/10/12 08:18:33;;;;;;;19.93;14.33;;;13.80;99.90;;;;;;5091207;28;20204;-60
2021/10/12 08:21:01;;;;;;;22.07;14.90;;;13.80;99.90;;;;;;5091023;28;20691;-60
2021/10/12 08:23:28;;;;;;;21.00;14.27;;;13.80;99.90;;;;;;5090914;28;20227;-60
2021/10/12 08:25:55;;;;;;;17.97;13.70;;;13.80;99.90;;;;;;5091358;28;20551;-60
2021/10/12 08:28:21;;;;;;;19.40;13.40;;;14.00;99.90;;;;;;5091291;28;20210;-60
2021/10/12 08:30:50;;;;;;;21.70;14.13;;;14.20;99.90;;;;;;5091287;28;20201;-60
2021/10/12 08:33:16;;;;;;;19.00;13.97;;;14.40;99.90;;;;;;5090979;28;20232;-60
2021/10/12 08:35:43;;;;;;;17.97;13.30;;;14.40;99.90;;;;;;5091637;28;20219;-60
2021/10/12 08:38:14;;;;;;;17.73;12.93;;;14.70;99.90;;;;;;5092240;28;20211;-60
2021/10/12 08:40:41;;;;;;;21.90;12.27;;;14.90;99.90;;;;;;5091234;28;20220;-60
2021/10/12 08:43:07;;;;;;;19.57;13.17;;;15.20;99.90;;;;;;5090944;28;20231;-60
2021/10/12 08:45:37;;;;;;;22.23;13.47;;;15.10;99.90;;;;;;5091193;28;20208;-60
2021/10/12 08:48:06;;;;;;;20.67;13.13;;;15.10;99.90;;;;;;5091102;28;20333;-60
2021/10/12 08:50:34;;;;;;;21.57;13.60;;;15.30;99.90;;;;;;5091471;28;20574;-60
2021/10/12 08:53:01;;;;;;;22.90;13.87;;;15.20;99.90;;;;;;5091859;28;20232;-60
2021/10/12 08:55:29;;;;;;;18.83;12.80;;;15.10;99.90;;;;;;5091865;28;20298;-60
2021/10/12 08:57:55;;;;;;;19.47;13.30;;;15.00;99.90;;;;;;5091811;28;20239;-60
2021/10/12 09:00:27;;;;;;;17.47;11.53;;;14.40;99.90;;;;;;5091760;28;20215;-60
2021/10/12 09:05:54;;;;;;;20.47;12.27;;;14.50;99.90;;;;;;5090923;28;20215;-60
2021/10/12 09:08:25;;;;;;;16.63;10.70;;;14.60;99.90;;;;;;5091464;28;20226;-60
2021/10/12 09:10:52;;;;;;;18.20;11.67;;;14.30;99.90;;;;;;5091417;28;20232;-60
2021/10/12 09:13:19;;;;;;;18.53;10.93;;;13.80;99.90;;;;;;5091158;28;20229;-60
2021/10/12 09:16:03;;;;;;;20.27;12.50;;;14.00;99.90;;;;;;5091463;28;20675;-60
2021/10/12 09:18:49;;;;;;;14.13;10.90;;;14.60;99.90;;;;;;5093101;28;20204;-60
2021/10/12 09:21:20;;;;;;;18.57;11.60;;;14.90;99.90;;;;;;5094866;28;20220;-60
2021/10/12 09:23:48;;;;;;;16.73;10.90;;;15.30;99.90;;;;;;5094255;28;20208;-59
2021/10/12 09:26:22;;;;;;;16.23;11.17;;;15.60;99.90;;;;;;5094582;28;20287;-59
2021/10/12 09:28:50;;;;;;;16.00;10.97;;;16.10;99.90;;;;;;5094556;28;20671;-58
2021/10/12 09:31:16;;;;;;;12.03;9.27;;;16.50;99.90;;;;;;5094641;28;20210;-58
2021/10/12 09:33:47;;;;;;;13.03;8.07;;;16.70;99.90;;;;;;5094307;28;20212;-59
2021/10/12 09:36:28;;;;;;;13.73;9.07;;;16.50;99.90;;;;;;5092170;28;20245;-61
2021/10/12 09:38:55;;;;;;;13.30;9.10;;;16.60;99.90;;;;;;5094306;28;20207;-61
2021/10/12 09:41:25;;;;;;;12.53;8.77;;;16.90;99.90;;;;;;5094844;28;20231;-66
2021/10/12 09:43:52;;;;;;;14.43;8.60;;;17.10;99.90;;;;;;5094318;28;20251;-63
2021/10/12 09:46:28;;;;;;;14.03;9.10;;;17.20;99.90;;;;;;5094097;28;20208;-64
2021/10/12 09:48:55;;;;;;;11.27;7.53;;;17.40;99.90;;;;;;5094438;28;20215;-63
2021/10/12 09:51:22;;;;;;;8.88;7.35;;;17.50;99.90;;;;;;5094690;28;20220;-61
2021/10/12 09:53:50;;;;;;;13.88;8.30;;;17.60;99.90;;;;;;5094238;28;20205;-63
2021/10/12 09:56:17;;;;;;;11.10;6.40;;;17.50;99.90;;;;;;5094309;28;20215;-62
2021/10/12 09:58:45;;;;;;;10.83;6.90;;;17.40;99.90;;;;;;5094065;28;20694;-67
2021/10/12 10:01:12;;;;;;;12.50;7.10;;;17.30;99.90;;;;;;5094231;28;20274;-62
2021/10/12 10:03:39;;;;;;;9.43;6.83;;;17.00;99.90;;;;;;5094126;28;20287;-65
2021/10/12 10:06:10;;;;;;;9.87;6.87;;;16.70;99.90;;;;;;5094224;28;20208;-63
2021/10/12 10:08:39;;;;;;;12.90;7.70;;;16.40;99.90;;;;;;5093648;28;20247;-63
2021/10/12 10:11:08;;;;;;;11.10;6.80;;;15.90;99.90;;;;;;5093873;28;20200;-62
2021/10/12 10:13:38;;;;;;;11.40;8.07;;;15.70;99.90;;;;;;5093541;28;20470;-62
2021/10/12 10:16:08;;;;;;;12.83;7.23;;;15.40;99.90;;;;;;5093751;28;20798;-64
2021/10/12 10:18:37;;;;;;;10.83;6.83;;;15.40;99.90;;;;;;5093495;28;20215;-65
2021/10/12 10:21:04;;;;;;;11.00;6.67;;;15.50;99.90;;;;;;5093962;28;20224;-64
2021/10/12 10:23:57;;;;;;;12.90;6.40;;;15.70;99.90;;;;;;5093812;28;20265;-65
2021/10/12 10:26:30;;;;;;;10.73;5.87;;;15.80;99.90;;;;;;5093930;28;20204;-64
2021/10/12 10:29:18;;;;;;;9.33;5.80;;;15.80;99.90;;;;;;5093619;28;20266;-62
2021/10/12 10:31:47;;;;;;;8.50;5.67;;;15.80;99.90;;;;;;5093631;28;20235;-62
2021/10/12 10:34:32;;;;;;;11.13;6.20;;;15.90;99.90;;;;;;5093176;28;20684;-63
2021/10/12 10:37:34;;;;;;;11.27;6.87;;;16.00;99.90;;;;;;5093402;28;20216;-63
2021/10/12 10:40:23;;;;;;;13.83;7.07;;;16.20;99.90;;;;;;5093427;28;20664;-63
2021/10/12 10:42:56;;;;;;;8.60;6.10;;;16.40;99.90;;;;;;5088671;28;20231;-63
2021/10/12 10:45:43;;;;;;;10.93;5.80;;;16.60;99.90;;;;;;5093290;28;20265;-62
2021/10/12 10:48:12;;;;;;;8.97;6.00;;;16.80;99.90;;;;;;5093649;28;20211;-62
2021/10/12 10:50:39;;;;;;;14.57;6.73;;;17.00;99.90;;;;;;5093824;28;20231;-62
2021/10/12 10:53:09;;;;;;;10.37;6.00;;;16.90;99.90;;;;;;5093006;28;20225;-62
2021/10/12 10:55:37;;;;;;;12.57;6.80;;;16.80;99.90;;;;;;5092716;28;20231;-63
2021/10/12 10:58:14;;;;;;;8.83;5.30;;;16.80;99.90;;;;;;5093194;28;20215;-64
2021/10/12 11:00:45;;;;;;;13.90;5.90;;;16.80;99.90;;;;;;5093107;28;20235;-64
2021/10/12 11:03:40;;;;;;;9.47;5.27;;;16.80;99.90;;;;;;5092693;28;20227;-64
2021/10/12 11:06:17;;;;;;;10.50;5.50;;;16.70;99.90;;;;;;5093131;28;20208;-65
2021/10/12 11:09:01;;;;;;;11.43;5.57;;;16.60;99.90;;;;;;5073491;28;20263;-64
2021/10/12 11:11:33;;;;;;;10.23;5.57;;;16.60;99.90;;;;;;5073906;28;20274;-64
2021/10/12 11:14:03;;;;;;;8.63;5.90;;;16.30;99.90;;;;;;5073389;28;20208;-64
2021/10/12 11:16:37;;;;;;;6.83;5.20;;;16.00;99.90;;;;;;5073630;28;20216;-64
2021/10/12 11:19:06;;;;;;;9.93;5.37;;;15.90;99.90;;;;;;5074165;28;20215;-64
2021/10/12 11:21:33;;;;;;;11.67;5.33;;;15.70;99.90;;;;;;5073641;28;20603;-65
2021/10/12 11:24:02;;;;;;;10.97;5.93;;;15.70;99.90;;;;;;5072955;28;20208;-64
2021/10/12 11:26:30;;;;;;;12.33;5.30;;;15.50;99.90;;;;;;5074499;28;20200;-64
2021/10/12 11:28:58;;;;;;;8.60;5.47;;;15.30;99.90;;;;;;5073062;28;20216;-65
2021/10/12 11:31:28;;;;;;;9.57;5.33;;;15.30;99.90;;;;;;5073565;28;20220;-65
2021/10/12 11:33:56;;;;;;;9.83;5.37;;;15.40;99.90;;;;;;5073329;28;20205;-64
2021/10/12 11:36:25;;;;;;;11.83;5.80;;;15.50;99.90;;;;;;5074675;28;20604;-64
2021/10/12 11:38:53;;;;;;;10.93;5.50;;;15.70;99.90;;;;;;5072910;28;20201;-64
2021/10/12 11:41:25;;;;;;;11.77;5.93;;;16.00;99.90;;;;;;5071154;28;20224;-64
2021/10/12 11:43:54;;;;;;;10.03;4.93;;;16.30;99.90;;;;;;5072350;28;20211;-63
2021/10/12 11:46:23;;;;;;;10.50;5.77;;;16.30;99.90;;;;;;5073231;28;20295;-64
2021/10/12 11:48:51;;;;;;;10.20;5.07;;;16.40;99.90;;;;;;5072384;28;20204;-63
2021/10/12 11:51:20;;;;;;;8.90;5.80;;;16.60;99.90;;;;;;5071606;28;20212;-64
2021/10/12 11:53:48;;;;;;;10.77;5.07;;;16.60;99.90;;;;;;5072162;28;20212;-65
2021/10/12 11:56:17;;;;;;;10.63;5.13;;;16.70;99.90;;;;;;5071864;28;20673;-66
2021/10/12 11:58:45;;;;;;;15.20;5.80;;;16.90;99.90;;;;;;5071728;28;20632;-64
2021/10/12 12:01:17;;;;;;;7.17;4.80;;;17.00;99.90;;;;;;5071619;28;20212;-63
2021/10/12 12:03:44;;;;;;;12.47;4.77;;;17.20;99.90;;;;;;5071325;28;20216;-63
2021/10/12 12:06:12;;;;;;;10.97;5.60;;;17.30;99.90;;;;;;5071178;28;20211;-63
2021/10/12 12:08:41;;;;;;;10.00;5.13;;;17.40;99.90;;;;;;5071617;28;20241;-63
2021/10/12 12:11:09;;;;;;;10.77;4.57;;;17.60;99.90;;;;;;5071715;28;20232;-63
2021/10/12 12:13:36;;;;;;;11.27;4.43;;;17.70;99.90;;;;;;5071214;28;20210;-64
2021/10/12 12:16:04;;;;;;;9.27;4.53;;;17.80;99.90;;;;;;5071633;28;20209;-64
2021/10/12 12:18:38;;;;;;;10.65;4.57;;;17.90;99.90;;;;;;5071540;28;20580;-64
2021/10/12 12:21:05;;;;;;;7.57;4.15;;;18.10;99.90;;;;;;5071488;28;20266;-64
2021/10/12 12:23:39;;;;;;;12.00;4.30;;;18.30;99.90;;;;;;5071129;28;20239;-63
2021/10/12 12:26:08;;;;;;;8.95;4.38;;;18.30;99.90;;;;;;5071673;28;20212;-62
2021/10/12 12:28:34;;;;;;;7.70;3.90;;;18.30;99.90;;;;;;5070989;28;20695;-63
2021/10/12 12:31:18;;;;;;;9.25;4.10;;;18.40;99.90;;;;;;5070850;28;20205;-62
2021/10/12 12:33:45;;;;;;;7.43;3.30;;;18.60;99.90;;;;;;5072006;28;20468;-60
2021/10/12 12:36:12;;;;;;;6.45;2.65;;;18.60;99.90;;;;;;5070976;28;20209;-61
2021/10/12 12:38:42;;;;;;;7.47;2.97;;;18.60;99.90;;;;;;5070934;28;20205;-60